sensor_id;sensor_type;location;lat;lon;timestamp;P1;durP1;ratioP1;P2;durP2;ratioP2
27357;SDS011;14831;50.474;7.616;2022-08-19T00:04:58;12.1;;;11.0;;
27357;SDS011;14831;50.474;7.616;2022-08-19T00:09:58;12.1;;;11.0;;
27357;SDS011;14831;50.474;7.616;2022-08-19T00:14:58;12.1;;;11.0;;
27357;SDS011;14831;50.474;7.616;2022-08-19T00:19:58;11.8;;;10.7;;
27357;SDS011;14831;50.474;7.616;2022-08-19T00:24:58;11.8;;;10.7;;
27357;SDS011;14831;50.474;7.616;2022-08-19T00:29:58;11.8;;;10.7;;
27357;SDS011;14831;50.474;7.616;2022-08-19T00:34:58;11.8;;;10.7;;
27357;SDS011;14831;50.474;7.616;2022-08-19T00:39:58;11.8;;;10.7;;
27357;SDS011;14831;50.474;7.616;2022-08-19T00:44:58;11.8;;;10.7;;
27357;SDS011;14831;50.474;7.616;2022-08-19T00:49:58;12.0;;;10.9;;
27357;SDS011;14831;50.474;7.616;2022-08-19T00:54:58;12.0;;;10.9;;
27357;SDS011;14831;50.474;7.616;2022-08-19T00:59:59;12.0;;;10.9;;
27357;SDS011;14831;50.474;7.616;2022-08-19T01:04:59;12.0;;;10.9;;
27357;SDS011;14831;50.474;7.616;2022-08-19T01:09:59;12.0;;;10.9;;
27357;SDS011;14831;50.474;7.616;2022-08-19T01:14:59;12.0;;;10.9;;
27357;SDS011;14831;50.474;7.616;2022-08-19T01:19:58;12.0;;;11.0;;
27357;SDS011;14831;50.474;7.616;2022-08-19T01:24:58;12.0;;;11.0;;
27357;SDS011;14831;50.474;7.616;2022-08-19T01:29:58;12.0;;;11.0;;
27357;SDS011;14831;50.474;7.616;2022-08-19T01:34:58;12.0;;;11.0;;
27357;SDS011;14831;50.474;7.616;2022-08-19T01:39:58;12.0;;;11.0;;
27357;SDS011;14831;50.474;7.616;2022-08-19T01:44:58;12.0;;;11.0;;
27357;SDS011;14831;50.474;7.616;2022-08-19T01:49:58;11.3;;;10.3;;
27357;SDS011;14831;50.474;7.616;2022-08-19T01:54:58;11.3;;;10.3;;
27357;SDS011;14831;50.474;7.616;2022-08-19T01:59:58;11.3;;;10.3;;
27357;SDS011;14831;50.474;7.616;2022-08-19T02:04:58;11.3;;;10.3;;
27357;SDS011;14831;50.474;7.616;2022-08-19T02:09:58;11.3;;;10.3;;
27357;SDS011;14831;50.474;7.616;2022-08-19T02:14:59;11.3;;;10.3;;
27357;SDS011;14831;50.474;7.616;2022-08-19T02:19:58;12.1;;;11.0;;
27357;SDS011;14831;50.474;7.616;2022-08-19T02:24:58;12.1;;;11.0;;
27357;SDS011;14831;50.474;7.616;2022-08-19T02:29:58;12.1;;;11.0;;
27357;SDS011;14831;50.474;7.616;2022-08-19T02:34:58;12.1;;;11.0;;
27357;SDS011;14831;50.474;7.616;2022-08-19T02:39:58;12.1;;;11.0;;
27357;SDS011;14831;50.474;7.616;2022-08-19T02:44:58;12.1;;;11.0;;
27357;SDS011;14831;50.474;7.616;2022-08-19T02:49:58;10.9;;;9.9;;
27357;SDS011;14831;50.474;7.616;2022-08-19T02:54:58;10.9;;;9.9;;
27357;SDS011;14831;50.474;7.616;2022-08-19T02:59:58;10.9;;;9.9;;
27357;SDS011;14831;50.474;7.616;2022-08-19T03:04:58;10.9;;;9.9;;
27357;SDS011;14831;50.474;7.616;2022-08-19T03:09:58;10.9;;;9.9;;
27357;SDS011;14831;50.474;7.616;2022-08-19T03:14:58;10.9;;;9.9;;
27357;SDS011;14831;50.474;7.616;2022-08-19T03:19:58;10.4;;;9.5;;
27357;SDS011;14831;50.474;7.616;2022-08-19T03:24:58;10.4;;;9.5;;
27357;SDS011;14831;50.474;7.616;2022-08-19T03:29:58;10.4;;;9.5;;
27357;SDS011;14831;50.474;7.616;2022-08-19T03:34:58;10.4;;;9.5;;
27357;SDS011;14831;50.474;7.616;2022-08-19T03:39:58;10.4;;;9.5;;
27357;SDS011;14831;50.474;7.616;2022-08-19T03:44:58;10.4;;;9.5;;
27357;SDS011;14831;50.474;7.616;2022-08-19T03:49:58;10.3;;;9.4;;
27357;SDS011;14831;50.474;7.616;2022-08-19T03:54:58;10.3;;;9.4;;
27357;SDS011;14831;50.474;7.616;2022-08-19T03:59:58;10.3;;;9.4;;
27357;SDS011;14831;50.474;7.616;2022-08-19T04:04:58;10.3;;;9.4;;
27357;SDS011;14831;50.474;7.616;2022-08-19T04:09:58;10.3;;;9.4;;
27357;SDS011;14831;50.474;7.616;2022-08-19T04:14:58;10.3;;;9.4;;
27357;SDS011;14831;50.474;7.616;2022-08-19T04:19:58;9.9;;;9.1;;
27357;SDS011;14831;50.474;7.616;2022-08-19T04:24:58;9.9;;;9.1;;
27357;SDS011;14831;50.474;7.616;2022-08-19T04:29:58;9.9;;;9.1;;
27357;SDS011;14831;50.474;7.616;2022-08-19T04:34:58;9.9;;;9.1;;
27357;SDS011;14831;50.474;7.616;2022-08-19T04:39:58;9.9;;;9.1;;
27357;SDS011;14831;50.474;7.616;2022-08-19T04:44:58;9.9;;;9.1;;
27357;SDS011;14831;50.474;7.616;2022-08-19T04:49:58;9.5;;;8.6;;
27357;SDS011;14831;50.474;7.616;2022-08-19T04:54:58;9.5;;;8.6;;
27357;SDS011;14831;50.474;7.616;2022-08-19T04:59:58;9.5;;;8.6;;
27357;SDS011;14831;50.474;7.616;2022-08-19T05:04:58;9.5;;;8.6;;
27357;SDS011;14831;50.474;7.616;2022-08-19T05:09:58;9.5;;;8.6;;
27357;SDS011;14831;50.474;7.616;2022-08-19T05:14:59;9.5;;;8.6;;
27357;SDS011;14831;50.474;7.616;2022-08-19T05:19:58;9.6;;;8.8;;
27357;SDS011;14831;50.474;7.616;2022-08-19T05:24:58;9.6;;;8.8;;
27357;SDS011;14831;50.474;7.616;2022-08-19T05:29:58;9.6;;;8.8;;
27357;SDS011;14831;50.474;7.616;2022-08-19T05:34:58;9.6;;;8.8;;
27357;SDS011;14831;50.474;7.616;2022-08-19T05:39:58;9.6;;;8.8;;
27357;SDS011;14831;50.474;7.616;2022-08-19T05:44:58;9.6;;;8.8;;
27357;SDS011;14831;50.474;7.616;2022-08-19T05:49:58;9.3;;;8.5;;
27357;SDS011;14831;50.474;7.616;2022-08-19T05:54:58;9.3;;;8.5;;
27357;SDS011;14831;50.474;7.616;2022-08-19T05:59:58;9.3;;;8.5;;
27357;SDS011;14831;50.474;7.616;2022-08-19T06:04:58;9.3;;;8.5;;
27357;SDS011;14831;50.474;7.616;2022-08-19T06:09:58;9.3;;;8.5;;
27357;SDS011;14831;50.474;7.616;2022-08-19T06:14:59;9.3;;;8.5;;
27357;SDS011;14831;50.474;7.616;2022-08-19T06:19:58;8.2;;;7.5;;
27357;SDS011;14831;50.474;7.616;2022-08-19T06:24:58;8.2;;;7.5;;
27357;SDS011;14831;50.474;7.616;2022-08-19T06:29:58;8.2;;;7.5;;
27357;SDS011;14831;50.474;7.616;2022-08-19T06:34:58;8.2;;;7.5;;
27357;SDS011;14831;50.474;7.616;2022-08-19T06:39:58;8.2;;;7.5;;
27357;SDS011;14831;50.474;7.616;2022-08-19T06:44:58;8.2;;;7.5;;
27357;SDS011;14831;50.474;7.616;2022-08-19T06:49:59;12.0;;;8.8;;
27357;SDS011;14831;50.474;7.616;2022-08-19T06:54:58;12.0;;;8.8;;
27357;SDS011;14831;50.474;7.616;2022-08-19T06:59:58;12.0;;;8.8;;
27357;SDS011;14831;50.474;7.616;2022-08-19T07:04:58;12.0;;;8.8;;
27357;SDS011;14831;50.474;7.616;2022-08-19T07:09:58;12.0;;;8.8;;
27357;SDS011;14831;50.474;7.616;2022-08-19T07:14:58;12.0;;;8.8;;
27357;SDS011;14831;50.474;7.616;2022-08-19T07:19:58;12.4;;;11.2;;
27357;SDS011;14831;50.474;7.616;2022-08-19T07:24:58;12.4;;;11.2;;
27357;SDS011;14831;50.474;7.616;2022-08-19T07:29:58;12.4;;;11.2;;
27357;SDS011;14831;50.474;7.616;2022-08-19T07:34:58;12.4;;;11.2;;
27357;SDS011;14831;50.474;7.616;2022-08-19T07:39:58;12.4;;;11.2;;
27357;SDS011;14831;50.474;7.616;2022-08-19T07:44:58;12.4;;;11.2;;
27357;SDS011;14831;50.474;7.616;2022-08-19T07:49:58;12.1;;;10.6;;
27357;SDS011;14831;50.474;7.616;2022-08-19T07:54:58;12.1;;;10.6;;
27357;SDS011;14831;50.474;7.616;2022-08-19T07:59:58;12.1;;;10.6;;
27357;SDS011;14831;50.474;7.616;2022-08-19T08:04:58;12.1;;;10.6;;
27357;SDS011;14831;50.474;7.616;2022-08-19T08:09:58;12.1;;;10.6;;
27357;SDS011;14831;50.474;7.616;2022-08-19T08:15:00;12.1;;;10.6;;
27357;SDS011;14831;50.474;7.616;2022-08-19T08:19:58;17.8;;;16.2;;
27357;SDS011;14831;50.474;7.616;2022-08-19T08:25:01;17.8;;;16.2;;
27357;SDS011;14831;50.474;7.616;2022-08-19T08:29:58;17.8;;;16.2;;
27357;SDS011;14831;50.474;7.616;2022-08-19T08:34:58;17.8;;;16.2;;
27357;SDS011;14831;50.474;7.616;2022-08-19T08:39:58;17.8;;;16.2;;
27357;SDS011;14831;50.474;7.616;2022-08-19T08:44:59;17.8;;;16.2;;
27357;SDS011;14831;50.474;7.616;2022-08-19T08:50:01;20.1;;;18.0;;
27357;SDS011;14831;50.474;7.616;2022-08-19T08:55:00;20.1;;;18.0;;
27357;SDS011;14831;50.474;7.616;2022-08-19T09:00:00;20.1;;;18.0;;
27357;SDS011;14831;50.474;7.616;2022-08-19T09:04:58;20.1;;;18.0;;
27357;SDS011;14831;50.474;7.616;2022-08-19T09:10:04;20.1;;;18.0;;
27357;SDS011;14831;50.474;7.616;2022-08-19T09:15:00;20.1;;;18.0;;
27357;SDS011;14831;50.474;7.616;2022-08-19T09:20:01;17.3;;;15.6;;
27357;SDS011;14831;50.474;7.616;2022-08-19T09:24:58;17.3;;;15.6;;
27357;SDS011;14831;50.474;7.616;2022-08-19T09:29:58;17.3;;;15.6;;
27357;SDS011;14831;50.474;7.616;2022-08-19T09:34:58;17.3;;;15.6;;
27357;SDS011;14831;50.474;7.616;2022-08-19T09:39:58;17.3;;;15.6;;
27357;SDS011;14831;50.474;7.616;2022-08-19T09:44:58;17.3;;;15.6;;
27357;SDS011;14831;50.474;7.616;2022-08-19T09:49:58;17.3;;;15.5;;
27357;SDS011;14831;50.474;7.616;2022-08-19T09:54:58;17.3;;;15.5;;
27357;SDS011;14831;50.474;7.616;2022-08-19T09:59:58;17.3;;;15.5;;
27357;SDS011;14831;50.474;7.616;2022-08-19T10:04:58;17.3;;;15.5;;
27357;SDS011;14831;50.474;7.616;2022-08-19T10:09:58;17.3;;;15.5;;
27357;SDS011;14831;50.474;7.616;2022-08-19T10:14:58;17.3;;;15.5;;
27357;SDS011;14831;50.474;7.616;2022-08-19T10:19:58;17.2;;;14.4;;
27357;SDS011;14831;50.474;7.616;2022-08-19T10:24:58;17.2;;;14.4;;
27357;SDS011;14831;50.474;7.616;2022-08-19T10:29:58;17.2;;;14.4;;
27357;SDS011;14831;50.474;7.616;2022-08-19T10:34:58;17.2;;;14.4;;
27357;SDS011;14831;50.474;7.616;2022-08-19T10:39:58;17.2;;;14.4;;
27357;SDS011;14831;50.474;7.616;2022-08-19T10:44:58;17.2;;;14.4;;
27357;SDS011;14831;50.474;7.616;2022-08-19T10:49:58;25.2;;;22.4;;
27357;SDS011;14831;50.474;7.616;2022-08-19T10:54:58;25.2;;;22.4;;
27357;SDS011;14831;50.474;7.616;2022-08-19T10:59:58;25.2;;;22.4;;
27357;SDS011;14831;50.474;7.616;2022-08-19T11:04:58;25.2;;;22.4;;
27357;SDS011;14831;50.474;7.616;2022-08-19T11:09:58;25.2;;;22.4;;
27357;SDS011;14831;50.474;7.616;2022-08-19T11:14:58;25.2;;;22.4;;
27357;SDS011;14831;50.474;7.616;2022-08-19T11:19:58;26.7;;;23.5;;
27357;SDS011;14831;50.474;7.616;2022-08-19T11:24:58;26.7;;;23.5;;
27357;SDS011;14831;50.474;7.616;2022-08-19T11:29:58;26.7;;;23.5;;
27357;SDS011;14831;50.474;7.616;2022-08-19T11:34:58;26.7;;;23.5;;
27357;SDS011;14831;50.474;7.616;2022-08-19T11:39:58;26.7;;;23.5;;
27357;SDS011;14831;50.474;7.616;2022-08-19T11:44:58;26.7;;;23.5;;
27357;SDS011;14831;50.474;7.616;2022-08-19T11:49:58;20.5;;;18.4;;
27357;SDS011;14831;50.474;7.616;2022-08-19T11:54:58;20.5;;;18.4;;
27357;SDS011;14831;50.474;7.616;2022-08-19T11:59:58;20.5;;;18.4;;
27357;SDS011;14831;50.474;7.616;2022-08-19T12:04:58;20.5;;;18.4;;
27357;SDS011;14831;50.474;7.616;2022-08-19T12:09:58;20.5;;;18.4;;
27357;SDS011;14831;50.474;7.616;2022-08-19T12:14:58;20.5;;;18.4;;
27357;SDS011;14831;50.474;7.616;2022-08-19T12:19:58;16.3;;;14.7;;
27357;SDS011;14831;50.474;7.616;2022-08-19T12:24:58;16.3;;;14.7;;
27357;SDS011;14831;50.474;7.616;2022-08-19T12:29:58;16.3;;;14.7;;
27357;SDS011;14831;50.474;7.616;2022-08-19T12:34:58;16.3;;;14.7;;
27357;SDS011;14831;50.474;7.616;2022-08-19T12:39:58;16.3;;;14.7;;
27357;SDS011;14831;50.474;7.616;2022-08-19T12:44:58;16.3;;;14.7;;
27357;SDS011;14831;50.474;7.616;2022-08-19T12:49:58;17.2;;;15.5;;
27357;SDS011;14831;50.474;7.616;2022-08-19T12:54:58;17.2;;;15.5;;
27357;SDS011;14831;50.474;7.616;2022-08-19T12:59:58;17.2;;;15.5;;
27357;SDS011;14831;50.474;7.616;2022-08-19T13:04:58;17.2;;;15.5;;
27357;SDS011;14831;50.474;7.616;2022-08-19T13:09:58;17.2;;;15.5;;
27357;SDS011;14831;50.474;7.616;2022-08-19T13:14:58;17.2;;;15.5;;
27357;SDS011;14831;50.474;7.616;2022-08-19T13:19:58;15.3;;;13.8;;
27357;SDS011;14831;50.474;7.616;2022-08-19T13:24:58;15.3;;;13.8;;
27357;SDS011;14831;50.474;7.616;2022-08-19T13:29:58;15.3;;;13.8;;
27357;SDS011;14831;50.474;7.616;2022-08-19T13:34:58;15.3;;;13.8;;
27357;SDS011;14831;50.474;7.616;2022-08-19T13:39:58;15.3;;;13.8;;
27357;SDS011;14831;50.474;7.616;2022-08-19T13:44:58;15.3;;;13.8;;
27357;SDS011;14831;50.474;7.616;2022-08-19T13:49:58;11.4;;;10.2;;
27357;SDS011;14831;50.474;7.616;2022-08-19T13:54:58;11.4;;;10.2;;
27357;SDS011;14831;50.474;7.616;2022-08-19T13:59:58;11.4;;;10.2;;
27357;SDS011;14831;50.474;7.616;2022-08-19T14:04:58;11.4;;;10.2;;
27357;SDS011;14831;50.474;7.616;2022-08-19T14:09:58;11.4;;;10.2;;
27357;SDS011;14831;50.474;7.616;2022-08-19T14:14:58;8.9;;;8.0;;
27357;SDS011;14831;50.474;7.616;2022-08-19T14:19:58;8.9;;;8.0;;
27357;SDS011;14831;50.474;7.616;2022-08-19T14:24:58;8.9;;;8.0;;
27357;SDS011;14831;50.474;7.616;2022-08-19T14:29:58;8.9;;;8.0;;
27357;SDS011;14831;50.474;7.616;2022-08-19T14:34:58;8.9;;;8.0;;
27357;SDS011;14831;50.474;7.616;2022-08-19T14:39:58;8.9;;;8.0;;
27357;SDS011;14831;50.474;7.616;2022-08-19T14:44:58;13.0;;;11.8;;
27357;SDS011;14831;50.474;7.616;2022-08-19T14:49:58;13.0;;;11.8;;
27357;SDS011;14831;50.474;7.616;2022-08-19T14:54:58;13.0;;;11.8;;
27357;SDS011;14831;50.474;7.616;2022-08-19T14:59:58;13.0;;;11.8;;
27357;SDS011;14831;50.474;7.616;2022-08-19T15:04:58;13.0;;;11.8;;
27357;SDS011;14831;50.474;7.616;2022-08-19T15:09:58;13.0;;;11.8;;
27357;SDS011;14831;50.474;7.616;2022-08-19T15:14:58;13.5;;;12.1;;
27357;SDS011;14831;50.474;7.616;2022-08-19T15:19:58;13.5;;;12.1;;
27357;SDS011;14831;50.474;7.616;2022-08-19T15:24:58;13.5;;;12.1;;
27357;SDS011;14831;50.474;7.616;2022-08-19T15:29:58;13.5;;;12.1;;
27357;SDS011;14831;50.474;7.616;2022-08-19T15:34:58;13.5;;;12.1;;
27357;SDS011;14831;50.474;7.616;2022-08-19T15:40:00;13.5;;;12.1;;
27357;SDS011;14831;50.474;7.616;2022-08-19T15:44:58;15.0;;;12.0;;
27357;SDS011;14831;50.474;7.616;2022-08-19T15:49:58;15.0;;;12.0;;
27357;SDS011;14831;50.474;7.616;2022-08-19T15:54:58;15.0;;;12.0;;
27357;SDS011;14831;50.474;7.616;2022-08-19T15:59:58;15.0;;;12.0;;
27357;SDS011;14831;50.474;7.616;2022-08-19T16:04:58;15.0;;;12.0;;
27357;SDS011;14831;50.474;7.616;2022-08-19T16:09:58;15.0;;;12.0;;
27357;SDS011;14831;50.474;7.616;2022-08-19T16:14:58;13.9;;;11.2;;
27357;SDS011;14831;50.474;7.616;2022-08-19T16:19:58;13.9;;;11.2;;
27357;SDS011;14831;50.474;7.616;2022-08-19T16:24:58;13.9;;;11.2;;
27357;SDS011;14831;50.474;7.616;2022-08-19T16:29:58;13.9;;;11.2;;
27357;SDS011;14831;50.474;7.616;2022-08-19T16:34:58;13.9;;;11.2;;
27357;SDS011;14831;50.474;7.616;2022-08-19T16:39:58;13.9;;;11.2;;
27357;SDS011;14831;50.474;7.616;2022-08-19T16:44:58;13.6;;;10.9;;
27357;SDS011;14831;50.474;7.616;2022-08-19T16:49:58;13.6;;;10.9;;
27357;SDS011;14831;50.474;7.616;2022-08-19T16:54:58;13.6;;;10.9;;
27357;SDS011;14831;50.474;7.616;2022-08-19T16:59:58;13.6;;;10.9;;
27357;SDS011;14831;50.474;7.616;2022-08-19T17:04:58;13.6;;;10.9;;
27357;SDS011;14831;50.474;7.616;2022-08-19T17:09:58;13.6;;;10.9;;
27357;SDS011;14831;50.474;7.616;2022-08-19T17:14:59;12.6;;;10.2;;
27357;SDS011;14831;50.474;7.616;2022-08-19T17:19:58;12.6;;;10.2;;
27357;SDS011;14831;50.474;7.616;2022-08-19T17:24:58;12.6;;;10.2;;
27357;SDS011;14831;50.474;7.616;2022-08-19T17:29:58;12.6;;;10.2;;
27357;SDS011;14831;50.474;7.616;2022-08-19T17:34:58;12.6;;;10.2;;
27357;SDS011;14831;50.474;7.616;2022-08-19T17:39:58;12.6;;;10.2;;
27357;SDS011;14831;50.474;7.616;2022-08-19T17:44:58;10.3;;;6.3;;
27357;SDS011;14831;50.474;7.616;2022-08-19T17:49:58;10.3;;;6.3;;
27357;SDS011;14831;50.474;7.616;2022-08-19T17:54:58;10.3;;;6.3;;
27357;SDS011;14831;50.474;7.616;2022-08-19T17:59:58;10.3;;;6.3;;
27357;SDS011;14831;50.474;7.616;2022-08-19T18:04:58;10.3;;;6.3;;
27357;SDS011;14831;50.474;7.616;2022-08-19T18:09:58;10.3;;;6.3;;
27357;SDS011;14831;50.474;7.616;2022-08-19T18:14:58;6.5;;;4.8;;
27357;SDS011;14831;50.474;7.616;2022-08-19T18:19:58;6.5;;;4.8;;
27357;SDS011;14831;50.474;7.616;2022-08-19T18:24:59;6.5;;;4.8;;
27357;SDS011;14831;50.474;7.616;2022-08-19T18:29:58;6.5;;;4.8;;
27357;SDS011;14831;50.474;7.616;2022-08-19T18:34:59;6.5;;;4.8;;
27357;SDS011;14831;50.474;7.616;2022-08-19T18:39:58;6.5;;;4.8;;
27357;SDS011;14831;50.474;7.616;2022-08-19T18:44:58;5.4;;;4.4;;
27357;SDS011;14831;50.474;7.616;2022-08-19T18:49:58;5.4;;;4.4;;
27357;SDS011;14831;50.474;7.616;2022-08-19T18:54:58;5.4;;;4.4;;
27357;SDS011;14831;50.474;7.616;2022-08-19T18:59:58;5.4;;;4.4;;
27357;SDS011;14831;50.474;7.616;2022-08-19T19:04:58;5.4;;;4.4;;
27357;SDS011;14831;50.474;7.616;2022-08-19T19:09:58;5.4;;;4.4;;
27357;SDS011;14831;50.474;7.616;2022-08-19T19:14:58;5.4;;;4.7;;
27357;SDS011;14831;50.474;7.616;2022-08-19T19:19:58;5.4;;;4.7;;
27357;SDS011;14831;50.474;7.616;2022-08-19T19:24:58;5.4;;;4.7;;
27357;SDS011;14831;50.474;7.616;2022-08-19T19:29:58;5.4;;;4.7;;
27357;SDS011;14831;50.474;7.616;2022-08-19T19:34:58;5.4;;;4.7;;
27357;SDS011;14831;50.474;7.616;2022-08-19T19:39:58;5.4;;;4.7;;
27357;SDS011;14831;50.474;7.616;2022-08-19T19:44:58;5.6;;;4.5;;
27357;SDS011;14831;50.474;7.616;2022-08-19T19:49:58;5.6;;;4.5;;
27357;SDS011;14831;50.474;7.616;2022-08-19T19:54:58;5.6;;;4.5;;
27357;SDS011;14831;50.474;7.616;2022-08-19T19:59:58;5.6;;;4.5;;
27357;SDS011;14831;50.474;7.616;2022-08-19T20:04:58;5.6;;;4.5;;
27357;SDS011;14831;50.474;7.616;2022-08-19T20:09:58;5.6;;;4.5;;
27357;SDS011;14831;50.474;7.616;2022-08-19T20:14:58;4.5;;;3.9;;
27357;SDS011;14831;50.474;7.616;2022-08-19T20:19:58;4.5;;;3.9;;
27357;SDS011;14831;50.474;7.616;2022-08-19T20:24:58;4.5;;;3.9;;
27357;SDS011;14831;50.474;7.616;2022-08-19T20:29:58;4.5;;;3.9;;
27357;SDS011;14831;50.474;7.616;2022-08-19T20:34:59;4.5;;;3.9;;
27357;SDS011;14831;50.474;7.616;2022-08-19T20:39:58;4.5;;;3.9;;
27357;SDS011;14831;50.474;7.616;2022-08-19T20:44:58;4.0;;;3.7;;
27357;SDS011;14831;50.474;7.616;2022-08-19T20:49:58;4.0;;;3.7;;
27357;SDS011;14831;50.474;7.616;2022-08-19T20:54:59;4.0;;;3.7;;
27357;SDS011;14831;50.474;7.616;2022-08-19T20:59:58;4.0;;;3.7;;
27357;SDS011;14831;50.474;7.616;2022-08-19T21:04:58;4.0;;;3.7;;
27357;SDS011;14831;50.474;7.616;2022-08-19T21:09:58;4.0;;;3.7;;
27357;SDS011;14831;50.474;7.616;2022-08-19T21:14:58;4.1;;;3.5;;
27357;SDS011;14831;50.474;7.616;2022-08-19T21:19:58;4.1;;;3.5;;
27357;SDS011;14831;50.474;7.616;2022-08-19T21:24:58;4.1;;;3.5;;
27357;SDS011;14831;50.474;7.616;2022-08-19T21:29:58;4.1;;;3.5;;
27357;SDS011;14831;50.474;7.616;2022-08-19T21:34:58;4.1;;;3.5;;
27357;SDS011;14831;50.474;7.616;2022-08-19T21:39:58;4.1;;;3.5;;
27357;SDS011;14831;50.474;7.616;2022-08-19T21:44:58;3.7;;;3.3;;
27357;SDS011;14831;50.474;7.616;2022-08-19T21:49:58;3.7;;;3.3;;
27357;SDS011;14831;50.474;7.616;2022-08-19T21:54:58;3.7;;;3.3;;
27357;SDS011;14831;50.474;7.616;2022-08-19T21:59:58;3.7;;;3.3;;
27357;SDS011;14831;50.474;7.616;2022-08-19T22:04:58;3.7;;;3.3;;
27357;SDS011;14831;50.474;7.616;2022-08-19T22:09:58;3.7;;;3.3;;
27357;SDS011;14831;50.474;7.616;2022-08-19T22:14:58;3.6;;;3.3;;
27357;SDS011;14831;50.474;7.616;2022-08-19T22:19:58;3.6;;;3.3;;
27357;SDS011;14831;50.474;7.616;2022-08-19T22:25:01;3.6;;;3.3;;
27357;SDS011;14831;50.474;7.616;2022-08-19T22:29:58;3.6;;;3.3;;
27357;SDS011;14831;50.474;7.616;2022-08-19T22:34:58;3.6;;;3.3;;
27357;SDS011;14831;50.474;7.616;2022-08-19T22:39:58;3.6;;;3.3;;
27357;SDS011;14831;50.474;7.616;2022-08-19T22:44:58;2.6;;;2.4;;
27357;SDS011;14831;50.474;7.616;2022-08-19T22:49:58;2.6;;;2.4;;
27357;SDS011;14831;50.474;7.616;2022-08-19T22:55:00;2.6;;;2.4;;
27357;SDS011;14831;50.474;7.616;2022-08-19T22:59:58;2.6;;;2.4;;
27357;SDS011;14831;50.474;7.616;2022-08-19T23:04:59;2.6;;;2.4;;
27357;SDS011;14831;50.474;7.616;2022-08-19T23:09:58;2.6;;;2.4;;
27357;SDS011;14831;50.474;7.616;2022-08-19T23:15:01;2.6;;;2.4;;
27357;SDS011;14831;50.474;7.616;2022-08-19T23:19:58;2.6;;;2.4;;
27357;SDS011;14831;50.474;7.616;2022-08-19T23:25:00;2.6;;;2.4;;
27357;SDS011;14831;50.474;7.616;2022-08-19T23:29:58;2.6;;;2.4;;
27357;SDS011;14831;50.474;7.616;2022-08-19T23:34:58;2.6;;;2.4;;
27357;SDS011;14831;50.474;7.616;2022-08-19T23:39:58;2.6;;;2.4;;
27357;SDS011;14831;50.474;7.616;2022-08-19T23:44:59;3.3;;;2.1;;
27357;SDS011;14831;50.474;7.616;2022-08-19T23:49:58;3.3;;;2.1;;
27357;SDS011;14831;50.474;7.616;2022-08-19T23:54:59;3.3;;;2.1;;
27357;SDS011;14831;50.474;7.616;2022-08-19T23:59:58;3.3;;;2.1;;
